createdAt,value
2023-02-02T00:01:17.248Z,96522.66
2023-02-02T00:16:18.665Z,96518.09
2023-02-02T00:31:20.059Z,96517.25
2023-02-02T00:46:21.449Z,96512.34
2023-02-02T01:01:22.924Z,96506.97
2023-02-02T01:16:24.848Z,96498.03
2023-02-02T01:31:26.335Z,96495.72
2023-02-02T01:46:27.892Z,96498.53
2023-02-02T02:01:29.319Z,96484.53
2023-02-02T02:16:30.838Z,96478.31
2023-02-02T02:31:32.450Z,96477.03
2023-02-02T02:46:35.965Z,96482.81
2023-02-02T03:01:40.221Z,96481.97
2023-02-02T03:16:41.631Z,96486.31
2023-02-02T03:31:42.990Z,96486.69
2023-02-02T03:46:44.482Z,96499.94
2023-02-02T04:01:45.884Z,96503.84
2023-02-02T04:16:47.261Z,96509.81
2023-02-02T04:31:49.750Z,96528.84
2023-02-02T04:46:51.183Z,96534.00
2023-02-02T05:01:52.606Z,96567.38
2023-02-02T05:16:54.444Z,96582.56
2023-02-02T05:31:55.882Z,96585.97
2023-02-02T05:46:57.302Z,96600.78
2023-02-02T06:01:58.665Z,96603.34
2023-02-02T06:17:00.100Z,96609.22
2023-02-02T06:32:01.510Z,96618.88
2023-02-02T06:47:02.873Z,96637.91
2023-02-02T07:02:04.223Z,96641.19
2023-02-02T07:17:05.576Z,96647.09
2023-02-02T07:32:06.987Z,96640.84
2023-02-02T07:47:08.383Z,96649.22
2023-02-02T08:02:09.783Z,96659.22
2023-02-02T08:17:11.161Z,96660.88
2023-02-02T08:32:12.515Z,96704.00
2023-02-02T08:47:13.905Z,96701.91
2023-02-02T09:02:16.792Z,96698.28
2023-02-02T09:17:18.219Z,96677.22
2023-02-02T09:32:19.566Z,96705.91
2023-02-02T09:47:20.961Z,96738.97
2023-02-02T10:02:22.317Z,96749.09
2023-02-02T10:17:23.660Z,96760.66
2023-02-02T10:32:25.049Z,96736.19
2023-02-02T10:47:26.675Z,96740.31
2023-02-02T11:02:28.168Z,96767.25
2023-02-02T11:17:29.899Z,96769.59
2023-02-02T11:32:32.441Z,96784.53
2023-02-02T11:47:33.889Z,96760.03
2023-02-02T12:02:35.268Z,96770.88
2023-02-02T12:17:38.922Z,96772.28
2023-02-02T12:32:41.661Z,96762.97
2023-02-02T12:47:43.010Z,96758.41
2023-02-02T13:02:44.609Z,96766.38
2023-02-02T13:17:45.985Z,96774.16
2023-02-02T13:32:47.343Z,96794.13
2023-02-02T13:47:48.725Z,96799.19
2023-02-02T14:02:50.197Z,96803.22
2023-02-02T14:17:51.549Z,96824.88
2023-02-02T14:32:52.958Z,96828.53
2023-02-02T14:47:54.295Z,96850.16
2023-02-02T15:02:55.710Z,96849.22
2023-02-02T15:17:58.850Z,96874.41
2023-02-02T15:33:02.067Z,96879.09
2023-02-02T15:48:04.304Z,96914.59
2023-02-02T16:03:05.718Z,96915.41
2023-02-02T16:18:10.640Z,96936.94
2023-02-02T16:33:12.036Z,96958.69
2023-02-02T16:48:13.495Z,96985.84
2023-02-02T17:03:14.852Z,97011.00
2023-02-02T17:18:16.219Z,97003.97
2023-02-02T17:33:17.680Z,97054.44
2023-02-02T17:48:19.018Z,97068.91
2023-02-02T18:03:20.456Z,97071.13
2023-02-02T18:18:21.916Z,97071.25
2023-02-02T18:33:23.839Z,97104.56
2023-02-02T18:48:25.206Z,97109.66
2023-02-02T19:03:26.557Z,97112.66
2023-02-02T19:18:28.032Z,97112.75
2023-02-02T19:33:29.364Z,97095.78
2023-02-02T19:48:30.703Z,97103.94
2023-02-02T20:03:32.083Z,97111.00
2023-02-02T20:18:33.451Z,97110.78
2023-02-02T20:33:34.845Z,97114.59
2023-02-02T20:48:36.200Z,97118.44
2023-02-02T21:03:37.680Z,97119.78
2023-02-02T21:18:39.197Z,97133.34
2023-02-02T21:33:40.572Z,97145.97
2023-02-02T21:48:42.033Z,97165.63
2023-02-02T22:03:49.541Z,97160.75
2023-02-02T22:18:50.909Z,97169.13
2023-02-02T22:33:52.262Z,97168.09
2023-02-02T22:48:53.637Z,97166.84
2023-02-02T23:03:55.094Z,97160.63
2023-02-02T23:18:56.467Z,97172.94
2023-02-02T23:33:58.049Z,97178.94
2023-02-02T23:49:00.534Z,97192.06
